createdAt,value
2019-06-08T00:00:08.811Z,416.43
2019-06-08T00:01:09.197Z,416.15
2019-06-08T00:02:09.605Z,416.09
2019-06-08T00:03:09.999Z,416.22
2019-06-08T00:04:10.353Z,416.09
2019-06-08T00:05:10.760Z,415.81
2019-06-08T00:06:12.480Z,416.36
2019-06-08T00:07:12.960Z,416.03
2019-06-08T00:08:12.979Z,416.31
2019-06-08T00:09:12.997Z,416.21
2019-06-08T00:10:12.776Z,416.20
2019-06-08T00:11:13.054Z,416.14
2019-06-08T00:12:13.438Z,416.02
2019-06-08T00:13:15.099Z,416.02
2019-06-08T00:14:15.147Z,416.18
2019-06-08T00:15:14.664Z,416.02
2019-06-08T00:16:15.245Z,416.10
2019-06-08T00:17:29.244Z,416.31
2019-06-08T00:18:17.356Z,416.42
2019-06-08T00:19:17.317Z,416.30
2019-06-08T00:20:17.709Z,416.43
2019-06-08T00:21:17.603Z,416.56
2019-06-08T00:22:17.676Z,416.23
2019-06-08T00:23:17.876Z,415.96
2019-06-08T00:24:18.111Z,415.92
2019-06-08T00:25:19.164Z,415.99
2019-06-08T00:26:19.997Z,416.15
2019-06-08T00:27:20.246Z,416.20
2019-06-08T00:28:20.374Z,416.28
2019-06-08T00:29:20.292Z,416.21
2019-06-08T00:30:20.453Z,416.20
2019-06-08T00:31:21.654Z,416.38
2019-06-08T00:32:22.494Z,416.02
2019-06-08T00:33:22.633Z,416.27
2019-06-08T00:34:22.689Z,416.45
2019-06-08T00:35:22.766Z,416.18
2019-06-08T00:36:23.002Z,416.07
2019-06-08T00:37:23.159Z,416.16
2019-06-08T00:38:23.552Z,416.13
2019-06-08T00:39:25.127Z,416.02
2019-06-08T00:40:25.247Z,416.43
2019-06-08T00:41:25.353Z,416.10
2019-06-08T00:42:25.548Z,416.67
2019-06-08T00:43:25.600Z,416.03
2019-06-08T00:44:25.848Z,416.42
2019-06-08T00:45:26.244Z,416.44
2019-06-08T00:46:26.617Z,416.16
2019-06-08T00:47:42.039Z,416.22
2019-06-08T00:48:28.767Z,416.40
2019-06-08T00:49:29.043Z,416.32
2019-06-08T00:50:29.395Z,416.59
2019-06-08T00:51:29.801Z,416.23
2019-06-08T00:52:29.399Z,416.39
2019-06-08T00:53:29.623Z,416.07
2019-06-08T00:54:29.840Z,416.30
2019-06-08T00:55:30.170Z,416.44
2019-06-08T00:56:30.657Z,416.46
2019-06-08T00:57:30.936Z,416.57
2019-06-08T00:58:31.302Z,416.59
2019-06-08T00:59:31.676Z,415.92
2019-06-08T01:00:32.061Z,416.34
2019-06-08T01:01:32.464Z,415.93
2019-06-08T01:02:32.862Z,416.43
2019-06-08T01:03:33.285Z,416.64
2019-06-08T01:04:33.802Z,416.64
2019-06-08T01:05:34.039Z,416.67
2019-06-08T01:06:34.446Z,416.57
2019-06-08T01:07:34.817Z,416.59
2019-06-08T01:08:35.229Z,416.48
2019-06-08T01:09:35.826Z,416.57
2019-06-08T01:10:35.988Z,416.40
2019-06-08T01:11:36.412Z,416.40
2019-06-08T01:12:36.861Z,416.59
2019-06-08T01:13:37.151Z,416.96
2019-06-08T01:14:37.529Z,417.15
2019-06-08T01:15:37.917Z,416.57
2019-06-08T01:16:38.337Z,416.38
2019-06-08T01:17:38.690Z,416.69
2019-06-08T01:18:39.082Z,416.46
2019-06-08T01:19:39.453Z,416.47
2019-06-08T01:20:39.894Z,416.58
2019-06-08T01:21:40.261Z,416.50
2019-06-08T01:22:40.625Z,416.90
2019-06-08T01:23:41.025Z,416.59
2019-06-08T01:24:41.379Z,416.52
2019-06-08T01:25:41.781Z,416.71
2019-06-08T01:26:42.218Z,417.19
2019-06-08T01:27:42.576Z,417.21
2019-06-08T01:28:43.029Z,417.25
2019-06-08T01:29:43.423Z,417.02
2019-06-08T01:30:43.743Z,416.75
2019-06-08T01:31:44.138Z,417.30
2019-06-08T01:32:44.518Z,417.02
2019-06-08T01:33:44.940Z,416.97
2019-06-08T01:34:45.305Z,417.04
2019-06-08T01:35:45.664Z,417.11
2019-06-08T01:36:46.096Z,416.65
2019-06-08T01:37:46.599Z,417.06
2019-06-08T01:38:46.898Z,417.15
2019-06-08T01:39:47.264Z,416.98
2019-06-08T01:40:47.610Z,416.84
2019-06-08T01:41:48.038Z,416.80
2019-06-08T01:42:48.416Z,416.64
2019-06-08T01:43:48.829Z,416.70
2019-06-08T01:44:49.191Z,417.07
2019-06-08T01:45:50.663Z,416.60
2019-06-08T01:47:01.559Z,416.79
2019-06-08T01:47:57.438Z,416.92
2019-06-08T01:48:50.769Z,417.24
2019-06-08T01:49:51.132Z,417.15
2019-06-08T01:50:51.520Z,416.74
2019-06-08T01:51:51.899Z,416.55
2019-06-08T01:52:52.288Z,416.78
2019-06-08T01:53:52.771Z,416.79
2019-06-08T01:54:53.061Z,416.98
2019-06-08T01:55:53.459Z,416.78
2019-06-08T01:56:53.863Z,416.63
2019-06-08T01:57:54.217Z,416.89
2019-06-08T01:58:54.645Z,417.11
2019-06-08T01:59:55.013Z,417.55
2019-06-08T02:00:55.394Z,416.67
2019-06-08T02:01:55.847Z,417.10
2019-06-08T02:02:56.147Z,416.70
2019-06-08T02:03:56.608Z,417.35
2019-06-08T02:04:56.963Z,416.99
2019-06-08T02:05:57.345Z,416.97
2019-06-08T02:06:57.753Z,417.17
2019-06-08T02:07:58.151Z,417.21
2019-06-08T02:08:58.568Z,416.94
2019-06-08T02:09:58.943Z,417.55
2019-06-08T02:10:59.408Z,417.41
2019-06-08T02:11:59.708Z,417.06
2019-06-08T02:13:00.085Z,417.18
2019-06-08T02:14:00.521Z,417.43
2019-06-08T02:15:00.860Z,416.75
2019-06-08T02:16:01.239Z,416.99
2019-06-08T02:17:01.674Z,416.88
2019-06-08T02:18:02.032Z,416.68
2019-06-08T02:19:02.569Z,416.48
2019-06-08T02:20:02.796Z,416.72
2019-06-08T02:21:03.186Z,416.30
2019-06-08T02:22:03.622Z,416.67
2019-06-08T02:23:03.978Z,416.51
2019-06-08T02:24:04.416Z,416.17
2019-06-08T02:25:04.765Z,416.39
2019-06-08T02:26:05.118Z,416.58
2019-06-08T02:27:05.603Z,416.33
2019-06-08T02:28:05.908Z,416.11
2019-06-08T02:29:06.365Z,416.33
2019-06-08T02:30:06.709Z,416.16
2019-06-08T02:31:07.054Z,416.32
2019-06-08T02:32:07.506Z,416.32
2019-06-08T02:33:07.869Z,416.81
2019-06-08T02:34:08.292Z,416.23
2019-06-08T02:35:08.929Z,415.79
2019-06-08T02:36:09.015Z,416.32
2019-06-08T02:37:09.395Z,415.94
2019-06-08T02:38:09.786Z,415.83
2019-06-08T02:39:10.202Z,416.16
2019-06-08T02:40:10.585Z,415.48
2019-06-08T02:41:15.663Z,415.81
2019-06-08T02:42:11.375Z,415.90
2019-06-08T02:43:11.788Z,415.96
2019-06-08T02:44:12.156Z,415.79
2019-06-08T02:45:12.545Z,415.92
2019-06-08T02:46:13.144Z,415.83
2019-06-08T02:47:16.165Z,415.76
2019-06-08T02:48:13.695Z,415.95
2019-06-08T02:49:14.082Z,415.76
2019-06-08T02:50:14.472Z,415.84
2019-06-08T02:51:14.882Z,415.63
2019-06-08T02:52:15.363Z,415.67
2019-06-08T02:53:15.635Z,415.48
2019-06-08T02:54:16.017Z,415.72
2019-06-08T02:55:16.420Z,415.72
2019-06-08T02:56:16.807Z,415.55
2019-06-08T02:57:17.208Z,415.51
2019-06-08T02:58:17.587Z,415.60
2019-06-08T02:59:17.979Z,415.66
2019-06-08T03:00:18.493Z,415.51
2019-06-08T03:01:18.747Z,415.73
2019-06-08T03:02:19.161Z,415.50
2019-06-08T03:03:19.521Z,415.50
2019-06-08T03:04:19.930Z,408.88
2019-06-08T03:05:20.296Z,415.12
2019-06-08T03:06:20.692Z,415.21
2019-06-08T03:07:21.100Z,415.05
2019-06-08T03:08:21.519Z,415.48
2019-06-08T03:09:21.873Z,415.67
2019-06-08T03:10:22.295Z,415.28
2019-06-08T03:11:22.647Z,416.00
2019-06-08T03:12:23.027Z,408.66
2019-06-08T03:13:23.394Z,415.35
2019-06-08T03:14:23.801Z,415.27
2019-06-08T03:15:24.189Z,415.86
2019-06-08T03:16:24.615Z,415.38
2019-06-08T03:17:24.932Z,415.75
2019-06-08T03:18:25.314Z,415.32
2019-06-08T03:19:25.883Z,415.33
2019-06-08T03:20:26.109Z,415.32
2019-06-08T03:21:26.485Z,415.41
2019-06-08T03:22:26.892Z,415.03
2019-06-08T03:23:27.238Z,415.85
2019-06-08T03:24:27.702Z,415.56
2019-06-08T03:25:28.130Z,415.37
2019-06-08T03:26:28.425Z,415.61
2019-06-08T03:27:28.815Z,415.82
2019-06-08T03:28:29.185Z,415.37
2019-06-08T03:29:29.614Z,415.39
2019-06-08T03:30:29.998Z,415.53
2019-06-08T03:31:30.366Z,415.45
2019-06-08T03:32:30.763Z,415.27
2019-06-08T03:33:34.568Z,415.28
2019-06-08T03:34:34.834Z,408.76
2019-06-08T03:35:35.285Z,415.36
2019-06-08T03:36:35.236Z,415.33
2019-06-08T03:37:35.614Z,415.19
2019-06-08T03:38:33.687Z,415.37
2019-06-08T03:39:35.113Z,415.06
2019-06-08T03:40:33.979Z,415.77
2019-06-08T03:41:36.132Z,415.35
2019-06-08T03:42:34.637Z,415.18
2019-06-08T03:43:35.315Z,414.90
2019-06-08T03:44:36.158Z,415.42
2019-06-08T03:45:36.336Z,415.22
2019-06-08T03:46:36.348Z,415.23
2019-06-08T03:47:37.106Z,415.14
2019-06-08T03:48:37.181Z,415.38
2019-06-08T03:49:42.816Z,415.34
2019-06-08T03:50:39.631Z,415.12
2019-06-08T03:51:40.863Z,415.35
2019-06-08T03:52:39.977Z,414.94
2019-06-08T03:53:40.012Z,414.95
2019-06-08T03:54:40.693Z,415.08
2019-06-08T03:55:40.334Z,414.63
2019-06-08T03:56:40.183Z,414.83
2019-06-08T03:57:41.894Z,414.88
2019-06-08T03:58:42.578Z,414.90
2019-06-08T03:59:42.774Z,414.48
2019-06-08T04:00:42.402Z,414.78
2019-06-08T04:01:43.827Z,414.65
2019-06-08T04:02:44.102Z,414.65
2019-06-08T04:03:43.797Z,414.51
2019-06-08T04:04:43.710Z,414.78
2019-06-08T04:05:44.449Z,414.82
2019-06-08T04:06:45.592Z,407.62
2019-06-08T04:07:46.381Z,414.16
2019-06-08T04:08:44.878Z,414.70
2019-06-08T04:09:45.938Z,414.48
2019-06-08T04:10:46.790Z,414.38
2019-06-08T04:11:46.699Z,414.73
2019-06-08T04:12:46.327Z,414.85
2019-06-08T04:13:47.170Z,414.23
2019-06-08T04:14:47.157Z,414.48
2019-06-08T04:15:47.442Z,414.63
2019-06-08T04:16:47.798Z,414.92
2019-06-08T04:17:48.177Z,414.61
2019-06-08T04:18:50.252Z,414.77
2019-06-08T04:20:08.979Z,414.68
2019-06-08T04:20:51.476Z,414.80
2019-06-08T04:21:50.616Z,415.09
2019-06-08T04:22:50.580Z,414.79
2019-06-08T04:23:50.781Z,414.91
2019-06-08T04:24:50.901Z,414.82
2019-06-08T04:25:51.522Z,414.93
2019-06-08T04:26:51.669Z,415.37
2019-06-08T04:27:52.051Z,415.14
2019-06-08T04:28:52.470Z,414.96
2019-06-08T04:29:52.866Z,415.10
2019-06-08T04:30:53.238Z,414.94
2019-06-08T04:31:53.595Z,414.64
2019-06-08T04:32:53.986Z,415.15
2019-06-08T04:33:54.405Z,415.24
2019-06-08T04:34:54.800Z,415.14
2019-06-08T04:35:55.153Z,414.80
2019-06-08T04:36:55.571Z,414.78
2019-06-08T04:37:55.952Z,415.21
2019-06-08T04:38:56.400Z,408.54
2019-06-08T04:39:56.824Z,414.92
2019-06-08T04:40:57.099Z,415.12
2019-06-08T04:41:57.520Z,415.57
2019-06-08T04:42:57.903Z,408.44
2019-06-08T04:43:58.288Z,415.65
2019-06-08T04:44:58.689Z,408.75
2019-06-08T04:45:59.048Z,415.22
2019-06-08T04:46:59.438Z,408.48
2019-06-08T04:47:59.927Z,415.46
2019-06-08T04:49:00.221Z,408.75
2019-06-08T04:50:17.444Z,414.95
2019-06-08T04:51:01.979Z,415.06
2019-06-08T04:52:01.366Z,415.30
2019-06-08T04:53:01.779Z,414.89
2019-06-08T04:54:02.156Z,415.45
2019-06-08T04:55:02.547Z,415.26
2019-06-08T04:56:02.999Z,415.89
2019-06-08T04:57:03.295Z,415.28
2019-06-08T04:58:03.686Z,415.32
2019-06-08T04:59:04.099Z,415.60
2019-06-08T05:00:11.763Z,415.19
2019-06-08T05:01:05.843Z,415.08
2019-06-08T05:02:05.245Z,415.56
2019-06-08T05:03:05.600Z,414.76
2019-06-08T05:04:06.105Z,415.28
2019-06-08T05:05:06.428Z,414.96
2019-06-08T05:06:06.794Z,415.58
2019-06-08T05:07:07.187Z,415.19
2019-06-08T05:08:07.581Z,415.32
2019-06-08T05:09:07.943Z,415.44
2019-06-08T05:10:08.340Z,415.40
2019-06-08T05:11:08.725Z,415.38
2019-06-08T05:12:09.178Z,415.46
2019-06-08T05:13:09.559Z,415.55
2019-06-08T05:14:09.929Z,415.36
2019-06-08T05:15:10.303Z,415.74
2019-06-08T05:16:10.682Z,415.15
2019-06-08T05:17:11.081Z,415.37
2019-06-08T05:18:11.457Z,415.44
2019-06-08T05:19:11.861Z,415.44
2019-06-08T05:20:12.268Z,415.50
2019-06-08T05:21:12.667Z,415.08
2019-06-08T05:22:13.021Z,415.36
2019-06-08T05:23:13.391Z,415.39
2019-06-08T05:24:13.801Z,415.14
2019-06-08T05:25:14.175Z,415.54
2019-06-08T05:26:14.544Z,415.34
2019-06-08T05:27:14.966Z,415.58
2019-06-08T05:28:15.337Z,415.14
2019-06-08T05:29:15.935Z,415.15
2019-06-08T05:30:16.109Z,408.85
2019-06-08T05:31:16.499Z,408.97
2019-06-08T05:32:16.911Z,409.01
2019-06-08T05:33:17.289Z,408.66
2019-06-08T05:34:17.676Z,408.65
2019-06-08T05:35:18.123Z,408.50
2019-06-08T05:36:18.434Z,408.66
2019-06-08T05:37:18.890Z,408.35
2019-06-08T05:38:19.216Z,408.54
2019-06-08T05:39:19.604Z,408.29
2019-06-08T05:40:20.020Z,408.41
2019-06-08T05:41:23.798Z,408.44
2019-06-08T05:42:20.790Z,408.42
2019-06-08T05:43:21.155Z,408.17
2019-06-08T05:44:21.561Z,408.42
2019-06-08T05:45:22.089Z,408.50
2019-06-08T05:46:22.325Z,408.13
2019-06-08T05:47:22.741Z,408.63
2019-06-08T05:48:23.096Z,408.24
2019-06-08T05:49:23.577Z,408.43
2019-06-08T05:50:23.946Z,408.28
2019-06-08T05:51:24.295Z,408.33
2019-06-08T05:52:24.697Z,408.32
2019-06-08T05:53:25.090Z,408.31
2019-06-08T05:54:25.500Z,407.99
2019-06-08T05:55:25.899Z,408.31
2019-06-08T05:56:26.230Z,408.03
2019-06-08T05:57:26.639Z,407.95
2019-06-08T05:58:27.004Z,408.27
2019-06-08T05:59:27.389Z,408.04
2019-06-08T06:00:27.825Z,407.76
2019-06-08T06:01:28.173Z,407.88
2019-06-08T06:02:28.706Z,408.16
2019-06-08T06:03:28.921Z,408.06
2019-06-08T06:04:29.323Z,408.31
2019-06-08T06:05:30.041Z,408.05
2019-06-08T06:06:30.132Z,407.63
2019-06-08T06:07:30.527Z,407.96
2019-06-08T06:08:30.894Z,408.25
2019-06-08T06:09:31.297Z,407.72
2019-06-08T06:10:31.758Z,407.89
2019-06-08T06:11:32.048Z,408.13
2019-06-08T06:12:32.458Z,408.10
2019-06-08T06:13:32.819Z,407.86
2019-06-08T06:14:36.790Z,407.96
2019-06-08T06:15:33.622Z,407.97
2019-06-08T06:16:33.971Z,407.86
2019-06-08T06:17:34.420Z,408.04
2019-06-08T06:18:34.832Z,407.91
2019-06-08T06:19:35.141Z,407.92
2019-06-08T06:20:35.573Z,407.70
2019-06-08T06:21:35.907Z,407.78
2019-06-08T06:22:36.325Z,407.54
2019-06-08T06:23:36.707Z,407.86
2019-06-08T06:24:37.108Z,407.72
2019-06-08T06:25:37.513Z,407.84
2019-06-08T06:26:37.907Z,407.69
2019-06-08T06:27:38.314Z,408.03
2019-06-08T06:28:38.703Z,407.78
2019-06-08T06:29:39.035Z,407.90
2019-06-08T06:30:39.461Z,408.01
2019-06-08T06:31:39.820Z,408.16
2019-06-08T06:32:41.646Z,407.99
2019-06-08T06:33:41.852Z,408.08
2019-06-08T06:34:41.879Z,407.93
2019-06-08T06:35:41.674Z,408.26
2019-06-08T06:36:41.798Z,407.96
2019-06-08T06:37:42.127Z,408.15
2019-06-08T06:38:43.723Z,407.57
2019-06-08T06:39:43.962Z,407.83
2019-06-08T06:40:43.950Z,408.16
2019-06-08T06:41:44.054Z,407.78
2019-06-08T06:42:44.085Z,407.86
2019-06-08T06:43:45.823Z,407.81
2019-06-08T06:44:45.702Z,407.35
2019-06-08T06:45:46.079Z,407.74
2019-06-08T06:46:46.105Z,407.42
2019-06-08T06:47:46.422Z,407.39
2019-06-08T06:48:46.403Z,407.50
2019-06-08T06:49:46.810Z,407.23
2019-06-08T06:50:48.167Z,407.33
2019-06-08T06:51:48.407Z,407.18
2019-06-08T06:52:48.886Z,406.95
2019-06-08T06:53:48.814Z,407.10
2019-06-08T06:54:48.979Z,407.29
2019-06-08T06:55:49.169Z,406.94
2019-06-08T06:56:49.521Z,407.13
2019-06-08T06:57:51.414Z,406.83
2019-06-08T06:58:51.782Z,406.75
2019-06-08T06:59:51.961Z,406.76
2019-06-08T07:00:51.544Z,406.80
2019-06-08T07:01:53.664Z,406.71
2019-06-08T07:02:53.912Z,406.50
2019-06-08T07:03:52.255Z,406.70
2019-06-08T07:04:52.621Z,406.92
2019-06-08T07:05:54.121Z,406.82
2019-06-08T07:06:54.367Z,407.10
2019-06-08T07:07:54.473Z,406.67
2019-06-08T07:08:54.591Z,406.34
2019-06-08T07:09:54.962Z,406.54
2019-06-08T07:10:55.236Z,406.83
2019-06-08T07:11:56.467Z,406.53
2019-06-08T07:12:55.723Z,406.79
2019-06-08T07:13:56.133Z,413.39
2019-06-08T07:14:56.524Z,413.14
2019-06-08T07:15:58.125Z,413.33
2019-06-08T07:16:58.245Z,413.38
2019-06-08T07:17:58.613Z,413.58
2019-06-08T07:18:58.792Z,413.43
2019-06-08T07:19:58.867Z,413.47
2019-06-08T07:20:58.879Z,413.25
2019-06-08T07:21:59.213Z,413.65
2019-06-08T07:22:59.616Z,413.24
2019-06-08T07:24:00.030Z,413.32
2019-06-08T07:25:00.462Z,413.51
2019-06-08T07:26:00.815Z,413.06
2019-06-08T07:27:01.151Z,413.36
2019-06-08T07:28:01.541Z,413.08
2019-06-08T07:29:01.959Z,412.99
2019-06-08T07:30:02.483Z,413.16
2019-06-08T07:31:02.756Z,413.03
2019-06-08T07:32:03.107Z,412.93
2019-06-08T07:33:03.514Z,413.08
2019-06-08T07:34:03.891Z,413.05
2019-06-08T07:35:04.327Z,412.75
2019-06-08T07:36:05.761Z,412.77
2019-06-08T07:37:05.054Z,413.15
2019-06-08T07:38:05.459Z,412.61
2019-06-08T07:39:05.844Z,412.90
2019-06-08T07:40:06.206Z,412.74
2019-06-08T07:41:06.928Z,412.79
2019-06-08T07:42:07.028Z,412.82
2019-06-08T07:43:09.257Z,413.01
2019-06-08T07:44:08.032Z,413.09
2019-06-08T07:45:08.158Z,413.01
2019-06-08T07:46:08.578Z,412.73
2019-06-08T07:47:08.966Z,412.41
2019-06-08T07:48:09.373Z,413.05
2019-06-08T07:49:09.781Z,412.37
2019-06-08T07:50:10.240Z,412.66
2019-06-08T07:51:10.532Z,412.24
2019-06-08T07:52:11.113Z,411.94
2019-06-08T07:53:11.309Z,412.16
2019-06-08T07:54:11.715Z,412.09
2019-06-08T07:55:12.089Z,412.27
2019-06-08T07:56:12.496Z,412.03
2019-06-08T07:57:12.876Z,412.00
2019-06-08T07:58:13.387Z,411.96
2019-06-08T07:59:14.928Z,412.17
2019-06-08T08:00:14.043Z,412.03
2019-06-08T08:01:14.430Z,411.59
2019-06-08T08:02:14.831Z,411.75
2019-06-08T08:03:15.206Z,411.64
2019-06-08T08:04:15.612Z,411.47
2019-06-08T08:05:15.983Z,411.96
2019-06-08T08:06:16.420Z,412.11
2019-06-08T08:07:16.773Z,411.77
2019-06-08T08:08:17.174Z,405.31
2019-06-08T08:09:17.561Z,404.88
2019-06-08T08:10:17.990Z,405.20
2019-06-08T08:11:18.335Z,405.19
2019-06-08T08:12:18.730Z,405.31
2019-06-08T08:13:19.111Z,405.70
2019-06-08T08:14:19.610Z,405.29
2019-06-08T08:15:19.899Z,405.36
2019-06-08T08:16:20.441Z,405.03
2019-06-08T08:17:20.650Z,405.32
2019-06-08T08:18:21.008Z,405.24
2019-06-08T08:19:21.425Z,405.50
2019-06-08T08:20:21.814Z,405.25
2019-06-08T08:21:25.945Z,405.75
2019-06-08T08:22:25.907Z,405.85
2019-06-08T08:23:23.046Z,405.51
2019-06-08T08:24:23.362Z,405.42
2019-06-08T08:25:23.746Z,405.09
2019-06-08T08:26:24.152Z,405.48
2019-06-08T08:27:24.544Z,405.00
2019-06-08T08:28:24.911Z,405.19
2019-06-08T08:29:25.358Z,405.17
2019-06-08T08:30:28.266Z,405.13
2019-06-08T08:31:27.754Z,405.36
2019-06-08T08:32:28.242Z,405.16
2019-06-08T08:33:27.561Z,404.87
2019-06-08T08:34:28.377Z,405.37
2019-06-08T08:35:28.012Z,405.07
2019-06-08T08:36:28.808Z,405.07
2019-06-08T08:37:28.427Z,404.79
2019-06-08T08:38:28.804Z,404.86
2019-06-08T08:39:29.303Z,405.25
2019-06-08T08:40:29.555Z,405.13
2019-06-08T08:41:29.979Z,405.15
2019-06-08T08:42:30.375Z,404.84
2019-06-08T08:43:30.731Z,405.24
2019-06-08T08:44:31.148Z,405.02
2019-06-08T08:45:31.499Z,405.12
2019-06-08T08:46:31.905Z,405.23
2019-06-08T08:47:32.333Z,405.12
2019-06-08T08:48:32.668Z,405.33
2019-06-08T08:49:33.066Z,405.47
2019-06-08T08:50:33.453Z,405.54
2019-06-08T08:51:33.866Z,405.38
2019-06-08T08:52:37.233Z,405.03
2019-06-08T08:53:37.427Z,405.55
2019-06-08T08:54:37.548Z,405.17
2019-06-08T08:55:37.821Z,405.40
2019-06-08T08:56:38.150Z,405.41
2019-06-08T08:57:38.099Z,405.36
2019-06-08T08:58:38.093Z,405.57
2019-06-08T08:59:38.114Z,405.15
2019-06-08T09:00:40.831Z,404.89
2019-06-08T09:01:38.207Z,405.28
2019-06-08T09:02:38.177Z,405.41
2019-06-08T09:03:39.381Z,405.37
2019-06-08T09:04:39.062Z,405.23
2019-06-08T09:05:39.350Z,405.01
2019-06-08T09:06:39.731Z,405.71
2019-06-08T09:07:40.120Z,405.32
2019-06-08T09:08:40.474Z,405.39
2019-06-08T09:09:40.868Z,405.01
2019-06-08T09:10:41.293Z,405.35
2019-06-08T09:11:41.697Z,404.92
2019-06-08T09:12:42.181Z,405.33
2019-06-08T09:13:42.408Z,405.10
2019-06-08T09:14:42.809Z,405.71
2019-06-08T09:15:43.230Z,405.76
2019-06-08T09:16:43.633Z,405.92
2019-06-08T09:17:44.011Z,405.60
2019-06-08T09:18:44.380Z,405.75
2019-06-08T09:19:44.769Z,405.88
2019-06-08T09:20:47.737Z,405.46
2019-06-08T09:21:48.047Z,405.62
2019-06-08T09:22:53.958Z,405.40
2019-06-08T09:23:48.508Z,405.32
2019-06-08T09:24:48.504Z,405.69
2019-06-08T09:25:48.084Z,405.59
2019-06-08T09:26:47.732Z,405.43
2019-06-08T09:27:48.246Z,405.35
2019-06-08T09:28:48.335Z,405.20
2019-06-08T09:29:48.639Z,405.77
2019-06-08T09:30:49.058Z,405.33
2019-06-08T09:31:49.452Z,405.68
2019-06-08T09:32:49.830Z,405.31
2019-06-08T09:34:04.055Z,405.15
2019-06-08T09:34:52.953Z,405.48
2019-06-08T09:35:53.028Z,405.37
2019-06-08T09:36:52.583Z,405.37
2019-06-08T09:37:53.133Z,405.55
2019-06-08T09:38:53.138Z,405.52
2019-06-08T09:39:53.838Z,405.58
2019-06-08T09:40:53.398Z,405.27
2019-06-08T09:41:53.809Z,405.59
2019-06-08T09:42:55.883Z,405.61
2019-06-08T09:43:55.570Z,405.79
2019-06-08T09:44:55.474Z,405.52
2019-06-08T09:45:55.343Z,405.38
2019-06-08T09:46:58.402Z,405.65
2019-06-08T09:47:59.605Z,405.76
2019-06-08T09:48:58.542Z,406.11
2019-06-08T09:49:58.765Z,405.91
2019-06-08T09:50:59.386Z,405.70
2019-06-08T09:51:58.788Z,405.89
2019-06-08T09:53:13.124Z,405.82
2019-06-08T09:54:00.826Z,405.93
2019-06-08T09:54:59.246Z,405.86
2019-06-08T09:56:01.030Z,405.64
2019-06-08T09:57:02.130Z,405.75
2019-06-08T09:58:04.502Z,405.62
2019-06-08T09:59:02.779Z,405.61
2019-06-08T10:00:02.562Z,405.67
2019-06-08T10:01:02.897Z,405.27
2019-06-08T10:02:05.643Z,405.51
2019-06-08T10:03:03.028Z,405.67
2019-06-08T10:04:02.784Z,405.62
2019-06-08T10:05:04.020Z,405.33
2019-06-08T10:06:05.508Z,405.65
2019-06-08T10:07:05.286Z,405.12
2019-06-08T10:08:04.226Z,405.34
2019-06-08T10:09:04.824Z,405.03
2019-06-08T10:10:04.803Z,405.21
2019-06-08T10:11:05.939Z,405.32
2019-06-08T10:12:06.406Z,405.46
2019-06-08T10:13:09.198Z,405.43
2019-06-08T10:14:09.225Z,404.97
2019-06-08T10:15:08.018Z,405.46
2019-06-08T10:16:09.361Z,405.68
2019-06-08T10:17:08.819Z,405.59
2019-06-08T10:18:08.128Z,405.78
2019-06-08T10:19:10.221Z,412.08
2019-06-08T10:20:09.654Z,412.18
2019-06-08T10:21:09.408Z,412.25
2019-06-08T10:22:09.809Z,412.29
2019-06-08T10:23:26.864Z,412.03
2019-06-08T10:24:10.756Z,412.15
2019-06-08T10:25:11.049Z,412.30
2019-06-08T10:26:10.938Z,412.14
2019-06-08T10:27:11.790Z,412.25
2019-06-08T10:28:13.984Z,412.20
2019-06-08T10:29:11.678Z,410.91
2019-06-08T10:30:12.047Z,411.91
2019-06-08T10:31:12.449Z,412.03
2019-06-08T10:32:12.873Z,412.29
2019-06-08T10:33:13.222Z,412.00
2019-06-08T10:34:13.629Z,412.02
2019-06-08T10:35:14.116Z,411.97
2019-06-08T10:36:14.383Z,411.48
2019-06-08T10:37:14.786Z,411.99
2019-06-08T10:38:17.887Z,412.15
2019-06-08T10:39:15.575Z,411.89
2019-06-08T10:40:18.554Z,411.53
2019-06-08T10:41:19.121Z,412.01
2019-06-08T10:42:17.927Z,411.95
2019-06-08T10:43:17.492Z,411.58
2019-06-08T10:44:18.065Z,411.76
2019-06-08T10:45:18.328Z,411.93
2019-06-08T10:46:20.500Z,411.01
2019-06-08T10:47:18.629Z,411.46
2019-06-08T10:48:19.031Z,411.20
2019-06-08T10:49:19.485Z,411.81
2019-06-08T10:50:19.795Z,411.86
2019-06-08T10:51:20.290Z,411.51
2019-06-08T10:52:20.616Z,411.81
2019-06-08T10:53:21.013Z,412.12
2019-06-08T10:54:21.401Z,412.17
2019-06-08T10:55:21.767Z,411.82
2019-06-08T10:56:22.159Z,411.84
2019-06-08T10:57:22.539Z,411.43
2019-06-08T10:58:22.932Z,411.97
2019-06-08T10:59:23.574Z,412.13
2019-06-08T11:00:24.512Z,412.21
2019-06-08T11:01:24.102Z,412.18
2019-06-08T11:02:24.491Z,412.29
2019-06-08T11:03:24.883Z,411.91
2019-06-08T11:04:25.306Z,412.37
2019-06-08T11:05:27.869Z,412.31
2019-06-08T11:06:26.070Z,411.93
2019-06-08T11:07:27.918Z,412.08
2019-06-08T11:08:27.382Z,412.12
2019-06-08T11:09:28.326Z,412.36
2019-06-08T11:10:27.603Z,411.99
2019-06-08T11:11:28.401Z,412.06
2019-06-08T11:12:28.456Z,411.34
2019-06-08T11:13:28.762Z,412.16
2019-06-08T11:14:29.157Z,411.84
2019-06-08T11:15:30.037Z,411.92
2019-06-08T11:16:30.009Z,411.65
2019-06-08T11:17:30.286Z,411.63
2019-06-08T11:18:30.695Z,411.85
2019-06-08T11:19:31.104Z,411.91
2019-06-08T11:20:31.543Z,411.89
2019-06-08T11:21:31.859Z,411.29
2019-06-08T11:22:32.261Z,411.88
2019-06-08T11:23:32.660Z,411.64
2019-06-08T11:24:33.078Z,411.74
2019-06-08T11:25:33.428Z,411.53
2019-06-08T11:26:33.807Z,411.86
2019-06-08T11:27:34.209Z,411.49
2019-06-08T11:28:34.587Z,411.33
2019-06-08T11:29:34.971Z,411.65
2019-06-08T11:30:38.169Z,411.27
2019-06-08T11:31:35.766Z,412.00
2019-06-08T11:32:38.195Z,411.56
2019-06-08T11:33:38.749Z,412.05
2019-06-08T11:34:37.509Z,411.45
2019-06-08T11:35:38.287Z,411.75
2019-06-08T11:36:39.296Z,411.76
2019-06-08T11:37:38.742Z,411.79
2019-06-08T11:38:38.479Z,410.57
2019-06-08T11:39:38.897Z,411.37
2019-06-08T11:40:39.264Z,419.16
2019-06-08T11:41:39.738Z,411.94
2019-06-08T11:42:40.060Z,412.14
2019-06-08T11:43:41.377Z,412.08
2019-06-08T11:44:40.820Z,410.81
2019-06-08T11:45:41.183Z,411.22
2019-06-08T11:46:42.539Z,412.09
2019-06-08T11:47:41.984Z,411.28
2019-06-08T11:48:42.383Z,411.28
2019-06-08T11:49:42.869Z,411.45
2019-06-08T11:50:43.153Z,411.37
2019-06-08T11:51:43.552Z,411.50
2019-06-08T11:52:43.963Z,411.15
2019-06-08T11:53:44.309Z,411.08
2019-06-08T11:54:44.715Z,411.41
2019-06-08T11:55:45.098Z,410.74
2019-06-08T11:56:48.080Z,409.62
2019-06-08T11:57:48.722Z,410.34
2019-06-08T11:58:48.452Z,411.23
2019-06-08T11:59:48.415Z,411.29
2019-06-08T12:00:48.868Z,410.72
2019-06-08T12:01:50.057Z,410.83
2019-06-08T12:02:48.484Z,410.88
2019-06-08T12:03:48.361Z,410.68
2019-06-08T12:04:48.588Z,410.44
2019-06-08T12:05:50.904Z,410.81
2019-06-08T12:06:49.323Z,410.01
2019-06-08T12:07:49.726Z,410.46
2019-06-08T12:08:50.097Z,410.40
2019-06-08T12:09:50.519Z,409.71
2019-06-08T12:10:50.898Z,410.16
2019-06-08T12:11:51.275Z,409.85
2019-06-08T12:12:51.675Z,409.41
2019-06-08T12:13:52.057Z,410.64
2019-06-08T12:14:52.505Z,409.79
2019-06-08T12:15:52.859Z,409.96
2019-06-08T12:16:53.237Z,410.42
2019-06-08T12:17:53.639Z,410.53
2019-06-08T12:18:54.006Z,410.21
2019-06-08T12:19:54.386Z,410.54
2019-06-08T12:20:54.851Z,410.03
2019-06-08T12:21:57.841Z,410.00
2019-06-08T12:22:55.745Z,410.64
2019-06-08T12:23:55.949Z,410.42
2019-06-08T12:24:56.348Z,410.40
2019-06-08T12:25:56.790Z,409.75
2019-06-08T12:27:00.150Z,410.22
2019-06-08T12:27:58.643Z,410.35
2019-06-08T12:29:01.035Z,409.37
2019-06-08T12:29:58.742Z,410.38
2019-06-08T12:31:00.826Z,410.42
2019-06-08T12:32:00.441Z,410.61
2019-06-08T12:32:59.511Z,410.51